Time,TemperatureF,DewpointF,PressureIn,WindDirection,WindDirectionDegrees,WindSpeedMPH,WindSpeedGustMPH,Humidity,HourlyPrecipIn,Conditions,Clouds,dailyrainin,SoftwareType,DateUTC
2013-04-05 00:03:00,36.0,29.0,30.06,SW,218,0.0,2.0,75,0.00,,,0.00,,2013-04-05 04:03:00,
2013-04-05 00:12:00,36.0,29.0,30.06,SW,218,0.0,2.0,75,0.00,,,0.00,,2013-04-05 04:12:00,
2013-04-05 00:23:00,36.0,29.0,30.05,SSW,212,1.0,3.0,76,0.00,,,0.00,,2013-04-05 04:23:00,
2013-04-05 00:33:00,36.0,30.0,30.04,South,190,1.0,3.0,78,0.00,,,0.00,,2013-04-05 04:33:00,
2013-04-05 00:42:00,36.0,30.0,30.04,South,190,1.0,3.0,78,0.00,,,0.00,,2013-04-05 04:42:00,
2013-04-05 00:52:00,36.0,30.0,30.03,South,188,1.0,5.0,80,0.00,,,0.00,,2013-04-05 04:52:00,
2013-04-05 01:02:00,36.0,30.0,30.03,SW,218,1.0,4.0,80,0.00,,,0.00,,2013-04-05 05:02:00,
2013-04-05 01:13:00,36.0,30.0,30.03,SW,218,1.0,4.0,80,0.00,,,0.00,,2013-04-05 05:13:00,
2013-04-05 01:22:00,36.0,31.0,30.03,SSW,212,1.0,2.0,81,0.00,,,0.00,,2013-04-05 05:22:00,
2013-04-05 01:32:00,35.0,30.0,30.03,SW,224,0.0,0.0,82,0.00,,,0.00,,2013-04-05 05:32:00,
2013-04-05 01:42:00,35.0,30.0,30.03,SW,224,0.0,0.0,82,0.00,,,0.00,,2013-04-05 05:42:00,
2013-04-05 01:53:00,35.0,30.0,30.02,SW,229,0.0,3.0,83,0.00,,,0.00,,2013-04-05 05:53:00,
2013-04-05 02:02:00,35.0,30.0,30.01,SW,214,0.0,2.0,83,0.00,,,0.00,,2013-04-05 06:02:00,
2013-04-05 02:12:00,35.0,30.0,30.01,SW,214,0.0,2.0,83,0.00,,,0.00,,2013-04-05 06:12:00,
2013-04-05 02:22:00,35.0,30.0,30.01,SW,229,0.0,0.0,83,0.00,,,0.00,,2013-04-05 06:22:00,
2013-04-05 02:32:00,35.0,31.0,30.00,SW,229,1.0,4.0,84,0.00,,,0.00,,2013-04-05 06:32:00,
2013-04-05 02:42:00,35.0,31.0,30.00,SW,229,1.0,4.0,84,0.00,,,0.00,,2013-04-05 06:42:00,
2013-04-05 02:52:00,35.0,30.0,30.00,SW,215,1.0,6.0,83,0.00,,,0.00,,2013-04-05 06:52:00,
2013-04-05 03:03:00,36.0,31.0,29.98,SE,144,2.0,5.0,81,0.00,,,0.00,,2013-04-05 07:03:00,
2013-04-05 03:12:00,36.0,31.0,29.98,SE,144,2.0,5.0,81,0.00,,,0.00,,2013-04-05 07:12:00,
2013-04-05 03:22:00,36.0,30.0,29.98,South,177,1.0,5.0,80,0.00,,,0.00,,2013-04-05 07:22:00,
2013-04-05 03:32:00,36.0,30.0,29.97,SW,231,0.0,4.0,79,0.00,,,0.00,,2013-04-05 07:32:00,
2013-04-05 03:42:00,36.0,30.0,29.97,SW,231,0.0,4.0,79,0.00,,,0.00,,2013-04-05 07:42:00,
2013-04-05 03:53:00,36.0,30.0,29.96,SW,232,0.0,2.0,78,0.00,,,0.00,,2013-04-05 07:53:00,
2013-04-05 04:02:00,36.0,30.0,29.97,SW,228,1.0,2.0,78,0.00,,,0.00,,2013-04-05 08:02:00,
2013-04-05 04:13:00,36.0,30.0,29.97,SW,228,1.0,2.0,78,0.00,,,0.00,,2013-04-05 08:13:00,
2013-04-05 04:22:00,36.0,29.0,29.97,SW,228,1.0,3.0,76,0.00,,,0.00,,2013-04-05 08:22:00,
2013-04-05 04:32:00,36.0,29.0,29.96,SW,229,1.0,2.0,76,0.00,,,0.00,,2013-04-05 08:32:00,
2013-04-05 04:43:00,36.0,29.0,29.96,SW,229,1.0,2.0,76,0.00,,,0.00,,2013-04-05 08:43:00,
2013-04-05 04:52:00,36.0,29.0,29.96,SSW,210,1.0,3.0,75,0.00,,,0.00,,2013-04-05 08:52:00,
2013-04-05 05:02:00,36.0,29.0,29.96,SSW,210,1.0,3.0,75,0.00,,,0.00,,2013-04-05 09:02:00,
2013-04-05 05:12:00,36.0,29.0,29.96,SSW,210,1.0,3.0,75,0.00,,,0.00,,2013-04-05 09:12:00,
2013-04-05 05:22:00,36.0,29.0,29.96,SSW,210,1.0,3.0,75,0.00,,,0.00,,2013-04-05 09:22:00,
2013-04-05 20:33:00,42.0,22.0,29.87,NW,305,4.0,14.0,45,0.00,,,0.00,,2013-04-06 00:33:00,
2013-04-05 20:43:00,42.0,22.0,29.87,NW,305,4.0,14.0,45,0.00,,,0.00,,2013-04-06 00:43:00,
2013-04-05 20:53:00,41.0,22.0,29.88,NNE,23,3.0,8.0,47,0.00,,,0.00,,2013-04-06 00:53:00,
2013-04-05 21:02:00,41.0,23.0,29.89,NW,305,4.0,11.0,48,0.00,,,0.00,,2013-04-06 01:02:00,
2013-04-05 21:13:00,40.0,22.0,29.90,NW,305,2.0,13.0,49,0.00,,,0.00,,2013-04-06 01:13:00,
2013-04-05 21:23:00,40.0,22.0,29.90,NW,305,2.0,13.0,49,0.00,,,0.00,,2013-04-06 01:23:00,
2013-04-05 21:33:00,40.0,23.0,29.90,WSW,256,3.0,9.0,50,0.00,,,0.00,,2013-04-06 01:33:00,
2013-04-05 21:43:00,40.0,23.0,29.90,WSW,256,3.0,9.0,50,0.00,,,0.00,,2013-04-06 01:43:00,
2013-04-05 21:53:00,39.0,23.0,29.91,WSW,257,2.0,10.0,53,0.00,,,0.00,,2013-04-06 01:53:00,
2013-04-05 22:02:00,39.0,24.0,29.91,WNW,293,3.0,9.0,55,0.00,,,0.00,,2013-04-06 02:02:00,
2013-04-05 22:12:00,39.0,24.0,29.91,WNW,293,3.0,9.0,55,0.00,,,0.00,,2013-04-06 02:12:00,
2013-04-05 22:23:00,38.0,24.0,29.92,WNW,285,3.0,14.0,57,0.00,,,0.00,,2013-04-06 02:23:00,
2013-04-05 22:32:00,38.0,25.0,29.93,NW,305,3.0,12.0,59,0.00,,,0.00,,2013-04-06 02:32:00,
2013-04-05 22:42:00,38.0,25.0,29.93,NW,305,3.0,12.0,59,0.00,,,0.00,,2013-04-06 02:42:00,
2013-04-05 22:53:00,37.0,24.0,29.93,NNE,20,4.0,14.0,60,0.00,,,0.00,,2013-04-06 02:53:00,
2013-04-05 23:03:00,37.0,25.0,29.93,WNW,302,7.0,19.0,61,0.00,,,0.00,,2013-04-06 03:03:00,
2013-04-05 23:13:00,37.0,25.0,29.93,WNW,302,7.0,19.0,61,0.00,,,0.00,,2013-04-06 03:13:00,
2013-04-05 23:22:00,37.0,25.0,29.94,West,278,2.0,17.0,62,0.00,,,0.00,,2013-04-06 03:22:00,
2013-04-05 23:34:00,36.0,25.0,29.94,NNW,329,2.0,10.0,64,0.00,,,0.00,,2013-04-06 03:34:00,
2013-04-05 23:43:00,36.0,25.0,29.94,NNW,329,2.0,10.0,64,0.00,,,0.00,,2013-04-06 03:43:00,
2013-04-05 23:54:00,36.0,26.0,29.94,West,281,3.0,9.0,66,0.00,,,0.00,,2013-04-06 03:54:00,